Accueil
METAR-TAF:

METAR-TAF

Aéroports :

Carbon County Regional Airport (Buck Davis Field)

Price, Utah, États-Unis

latitude: 39-36-33N, longitude: 110-45-17W, altitude: 1805 m

Observation

Le bulletin a été fait il y a 51 minutes, à 21:53 UTC
Vent 5 kt de sud/sud-est
Température 7°C
Humidité 93%
Pression 1004 hPa
Visibilité: 6.4 km
Quelques nuages à une hauteur de 300 ft
Nuages fragmentés à une hauteur de 1700 ft
Ciel couvert à une hauteur de 2800 ft
pluie, brume

METAR: KPUC 202153Z AUTO 15005KT 4SM RA BR FEW003 BKN017 OVC028 07/06 A2966 RMK AO2 RAB01 SLP041 P0007 T00670061

Heure: 15:44 (22:44 UTC)


TAF: absent

Observations et prévisions météorologiques de plus de 4000 aéroports (messages METAR et TAF).

Les stations disponibles sont représentées par des disques jaunes et rouges sur la carte.

Passer la souris dessus pour voir le nom de la station.

Cliquer dessus pour voir les observations et prévisions météorologiques.

Pour changer de carte: cliquez sur les boutons verts avec une croix noire pour zoomer, sur le bouton vert avec un tiret pour effectuer un zoom arrière, ou sur les flèches vertes pour les cartes adjacentes.


METAR-TAF: